San Ygnacio, TX

4:05 AM CDT on August 02, 2014 (GMT -0500)
Laredo International (KLRD) Elev 509 ft | 27.54 °N, 99.46 °W | Change Station

Current weather conditions updated 1 hour ago

Mostly Cloudy
Mostly Cloudy
78 °F
Feels Like 78 °F
N
6
Wind Variable Wind from West

Today is forecast to be Cooler than yesterday. Scattered thunderstorms.

Today
High -- | Low -- °F
--% Chance of Precip.
Yesterday
High -- | Low -- °F
Precip. -- in
7:02 AM 8:25 PM
Waxing Crescent, 34% visible
Pressure 29.95 in
Visibility 10.0 miles
Clouds Mostly Cloudy 7000 ft
Dew Point 76 °F
Humidity 94%
Rainfall 0.00 in
Snow Depth Not available.
UV 0 out of 12
Pollen 7.10 out of 12
Air Quality Not available.
Flu Activity Not available.
METAR KLRD 020756Z AUTO 27005KT 10SM BKN070 26/24 A2999 RMK AO2 T02550244 SLP142

More Conditions Fewer Conditions

Pressure 29.95 in
Visibility 10.0 miles
Clouds Mostly Cloudy 7000 ft
Dew Point 76 °F
Humidity 94%
Rainfall 0.00 in
Snow Depth Not available.
UV 0 out of 12
Pollen 7.10 out of 12
Air Quality Not available.
Flu Activity Not available.
METAR KLRD 020756Z AUTO 27005KT 10SM BKN070 26/24 A2999 RMK AO2 T02550244 SLP142

More Conditions Fewer Conditions

10-Day Weather Forecast

Almanac

Astronomy

Aug. 02, 2014 Rise Set
Actual Time 7:02 AM CDT 8:25 PM CDT
Civil Twilight 6:37 AM CDT 8:50 PM CDT
Nautical Twilight 6:07 AM CDT 9:19 PM CDT
Astronomical Twilight 5:36 AM CDT 9:50 PM CDT
Moon 12:47 PM CDT No Moon Set
Length of Visible Light 14h 12m
Length of Day
13h 22m
Tomorrow will be 1m 13s shorter.
Waxing Crescent, 34% of the Moon is Illuminated
Today
Waxing Crescent
Aug 3
First Quarter
Aug 10
Full
Aug 17
Last Quarter
Aug 25
New

Today's Extremes

State Highs State Lows

Community

WunderPhotos

Upload Photos

1,739,850 photos uploaded!

Nearby

Snow Depth

Station Depth Elevation
No new snow has been reported.

Earthquake Activity

City Distance Mag. Time & Date
No recent earthquake activity has been reported nearby.
Minimum magnitude displayed is 2.5.

Coastal Water Temperatures

Place Temperature
No Stations Reporting

Nearby Weather Stations

There are no personal weather stations in this area.